createdAt,value
2018-04-30T00:01:15.940Z,17.90
2018-04-30T00:03:43.550Z,17.90
2018-04-30T00:06:11.138Z,17.80
2018-04-30T00:08:38.772Z,17.80
2018-04-30T00:11:06.346Z,17.70
2018-04-30T00:13:33.962Z,17.70
2018-04-30T00:16:02.368Z,17.60
2018-04-30T00:18:29.985Z,17.60
2018-04-30T00:20:57.596Z,17.60
2018-04-30T00:23:25.198Z,17.50
2018-04-30T00:25:53.582Z,17.50
2018-04-30T00:28:21.194Z,17.50
2018-04-30T00:30:48.794Z,17.50
2018-04-30T00:33:16.367Z,17.40
2018-04-30T00:35:43.948Z,17.30
2018-04-30T00:38:12.312Z,17.30
2018-04-30T00:40:39.912Z,17.30
2018-04-30T00:43:07.509Z,17.30
2018-04-30T00:45:35.118Z,17.20
2018-04-30T00:48:02.706Z,17.30
2018-04-30T00:50:30.356Z,17.20
2018-04-30T00:52:57.976Z,17.20
2018-04-30T00:55:25.583Z,17.20
2018-04-30T00:57:53.154Z,17.10
2018-04-30T01:00:20.780Z,17.10
2018-04-30T01:02:48.384Z,17.00
2018-04-30T01:05:16.012Z,17.00
2018-04-30T01:07:43.620Z,16.90
2018-04-30T01:10:11.247Z,16.80
2018-04-30T01:12:38.876Z,16.70
2018-04-30T01:15:07.270Z,16.50
2018-04-30T01:17:34.923Z,16.50
2018-04-30T01:20:02.568Z,16.40
2018-04-30T01:22:30.938Z,16.20
2018-04-30T01:24:58.534Z,16.10
2018-04-30T01:27:26.150Z,16.10
2018-04-30T01:29:53.744Z,16.00
2018-04-30T01:32:22.147Z,15.90
2018-04-30T01:34:49.746Z,15.90
2018-04-30T01:37:17.337Z,15.90
2018-04-30T01:39:44.965Z,15.80
2018-04-30T01:42:12.561Z,15.80
2018-04-30T01:44:40.149Z,15.80
2018-04-30T01:47:07.757Z,15.70
2018-04-30T01:49:35.349Z,15.60
2018-04-30T01:52:03.203Z,15.60
2018-04-30T01:54:31.587Z,15.40
2018-04-30T01:56:59.194Z,15.40
2018-04-30T01:59:26.798Z,15.40
2018-04-30T02:01:54.457Z,15.30
2018-04-30T02:04:22.083Z,15.30
2018-04-30T02:06:49.679Z,15.30
2018-04-30T02:09:17.285Z,15.30
2018-04-30T02:11:44.921Z,15.30
2018-04-30T02:14:13.269Z,15.30
2018-04-30T02:16:40.851Z,15.40
2018-04-30T02:19:08.439Z,15.50
2018-04-30T02:21:36.038Z,15.60
2018-04-30T02:24:03.627Z,15.60
2018-04-30T02:26:31.267Z,15.70
2018-04-30T02:28:58.887Z,15.70
2018-04-30T02:31:26.483Z,15.70
2018-04-30T02:33:54.085Z,15.80
2018-04-30T02:36:21.659Z,15.80
2018-04-30T02:38:49.239Z,15.80
2018-04-30T02:41:16.844Z,15.80
2018-04-30T02:43:45.223Z,15.80
2018-04-30T02:46:13.619Z,15.80
2018-04-30T02:48:41.998Z,15.80
2018-04-30T02:51:09.595Z,15.90
2018-04-30T02:53:37.209Z,15.90
2018-04-30T02:56:05.578Z,15.80
2018-04-30T02:58:33.951Z,15.80
2018-04-30T03:01:01.521Z,15.80
2018-04-30T03:03:29.885Z,15.70
2018-04-30T03:05:57.618Z,15.70
2018-04-30T03:08:25.240Z,15.70
2018-04-30T03:10:52.843Z,15.60
2018-04-30T03:13:20.435Z,15.60
2018-04-30T03:15:48.041Z,15.60
2018-04-30T03:18:15.649Z,15.50
2018-04-30T03:20:43.254Z,15.50
2018-04-30T03:23:10.805Z,15.40
2018-04-30T03:25:38.419Z,15.40
2018-04-30T03:28:06.009Z,15.40
2018-04-30T03:30:34.383Z,15.30
2018-04-30T03:33:01.979Z,15.30
2018-04-30T03:35:29.589Z,15.30
2018-04-30T03:37:57.215Z,15.30
2018-04-30T03:40:24.841Z,15.30
2018-04-30T03:42:52.461Z,15.20
2018-04-30T03:45:20.070Z,15.20
2018-04-30T03:47:47.669Z,15.20
2018-04-30T03:50:15.260Z,15.10
2018-04-30T03:52:43.645Z,15.10
2018-04-30T03:55:11.402Z,15.00
2018-04-30T03:57:39.003Z,15.00
2018-04-30T04:00:06.593Z,15.00
2018-04-30T04:02:46.039Z,14.90
2018-04-30T04:05:25.374Z,14.90
2018-04-30T04:07:52.989Z,14.90
2018-04-30T04:10:20.599Z,14.80
2018-04-30T04:12:48.261Z,14.80
2018-04-30T04:15:15.827Z,14.80
2018-04-30T04:17:43.438Z,14.80
2018-04-30T04:20:11.043Z,14.70
2018-04-30T04:22:38.649Z,14.70
2018-04-30T04:25:06.267Z,14.70
2018-04-30T04:27:33.899Z,14.70
2018-04-30T04:30:01.472Z,14.60
2018-04-30T04:32:29.050Z,14.60
2018-04-30T04:34:56.643Z,14.60
2018-04-30T04:37:25.015Z,14.50
2018-04-30T04:39:52.605Z,14.50
2018-04-30T04:42:20.221Z,14.50
2018-04-30T04:44:47.841Z,14.50
2018-04-30T04:47:15.465Z,14.50
2018-04-30T04:49:43.851Z,14.50
2018-04-30T04:52:12.226Z,14.50
2018-04-30T04:54:39.931Z,14.50
2018-04-30T04:57:07.533Z,14.50
2018-04-30T04:59:35.920Z,14.50
2018-04-30T05:02:03.523Z,14.50
2018-04-30T05:04:31.136Z,14.50
2018-04-30T05:06:58.737Z,14.50
2018-04-30T05:09:26.343Z,14.40
2018-04-30T05:11:53.955Z,14.40
2018-04-30T05:14:21.599Z,14.50
2018-04-30T05:16:49.211Z,14.50
2018-04-30T05:19:16.789Z,14.50
2018-04-30T05:21:44.383Z,14.50
2018-04-30T05:24:11.959Z,14.40
2018-04-30T05:26:39.563Z,14.40
2018-04-30T05:29:07.183Z,14.50
2018-04-30T05:31:34.815Z,14.50
2018-04-30T05:34:02.445Z,14.50
2018-04-30T05:36:30.058Z,14.50
2018-04-30T05:38:57.675Z,14.50
2018-04-30T05:41:25.242Z,14.50
2018-04-30T05:43:52.845Z,14.40
2018-04-30T05:46:20.532Z,14.40
2018-04-30T05:48:48.189Z,14.30
2018-04-30T05:51:15.812Z,14.30
2018-04-30T05:53:43.409Z,14.30
2018-04-30T05:56:10.962Z,14.20
2018-04-30T05:58:38.556Z,14.20
2018-04-30T06:01:06.180Z,14.20
2018-04-30T06:03:33.830Z,14.20
2018-04-30T06:06:01.449Z,14.20
2018-04-30T06:08:29.870Z,14.10
2018-04-30T06:10:58.200Z,14.00
2018-04-30T06:13:25.860Z,14.00
2018-04-30T06:15:53.466Z,14.00
2018-04-30T06:18:21.223Z,13.90
2018-04-30T06:21:07.051Z,13.90
2018-04-30T06:23:34.688Z,13.90
2018-04-30T06:26:02.315Z,13.90
2018-04-30T06:28:30.665Z,13.90
2018-04-30T06:30:58.263Z,13.90
2018-04-30T06:33:25.922Z,13.90
2018-04-30T06:35:54.330Z,13.80
2018-04-30T06:38:21.934Z,13.80
2018-04-30T06:40:49.535Z,13.70
2018-04-30T06:43:17.948Z,13.50
2018-04-30T06:45:45.708Z,13.50
2018-04-30T06:48:13.314Z,13.50
2018-04-30T06:50:40.907Z,13.40
2018-04-30T06:53:08.509Z,13.30
2018-04-30T06:55:36.134Z,13.20
2018-04-30T06:58:03.829Z,13.20
2018-04-30T07:00:32.281Z,13.00
2018-04-30T07:02:59.953Z,12.90
2018-04-30T07:05:27.531Z,12.80
2018-04-30T07:07:55.286Z,12.70
2018-04-30T07:10:22.953Z,12.60
2018-04-30T07:12:50.579Z,12.50
2018-04-30T07:15:19.018Z,12.40
2018-04-30T07:17:46.641Z,12.30
2018-04-30T07:20:14.296Z,12.30
2018-04-30T07:22:42.659Z,12.20
2018-04-30T07:25:10.296Z,12.20
2018-04-30T07:27:38.745Z,12.20
2018-04-30T07:30:06.355Z,12.20
2018-04-30T07:32:34.013Z,12.20
2018-04-30T07:35:02.369Z,12.10
2018-04-30T07:37:29.964Z,12.10
2018-04-30T07:39:57.591Z,12.20
2018-04-30T07:42:25.239Z,12.20
2018-04-30T07:44:53.176Z,12.30
2018-04-30T07:47:20.889Z,12.40
2018-04-30T07:49:48.472Z,12.40
2018-04-30T07:52:16.091Z,12.50
2018-04-30T07:54:43.721Z,12.50
2018-04-30T07:57:11.324Z,12.60
2018-04-30T07:59:38.935Z,12.60
2018-04-30T08:02:06.615Z,12.60
2018-04-30T08:04:34.221Z,12.60
2018-04-30T08:07:02.575Z,12.50
2018-04-30T08:09:30.163Z,12.50
2018-04-30T08:11:57.737Z,12.70
2018-04-30T08:14:25.361Z,12.90
2018-04-30T08:16:53.001Z,13.10
2018-04-30T08:19:20.642Z,13.20
2018-04-30T08:21:48.260Z,13.30
2018-04-30T08:24:15.879Z,13.40
2018-04-30T08:26:47.422Z,13.40
2018-04-30T08:29:15.001Z,13.60
2018-04-30T08:31:42.588Z,13.90
2018-04-30T08:34:10.239Z,14.20
2018-04-30T08:36:37.878Z,14.30
2018-04-30T08:39:06.431Z,14.50
2018-04-30T08:41:34.806Z,15.40
2018-04-30T08:44:02.419Z,15.40
2018-04-30T08:46:30.079Z,15.70
2018-04-30T08:48:57.739Z,15.80
2018-04-30T08:51:25.449Z,15.90
2018-04-30T08:53:53.075Z,15.80
2018-04-30T08:56:20.685Z,15.90
2018-04-30T08:58:48.303Z,15.80
2018-04-30T09:01:15.903Z,16.00
2018-04-30T09:03:43.587Z,16.30
2018-04-30T09:06:11.236Z,16.60
2018-04-30T09:08:38.843Z,16.90
2018-04-30T09:11:06.419Z,16.70
2018-04-30T09:13:34.799Z,16.40
2018-04-30T09:16:03.185Z,16.60
2018-04-30T09:18:30.803Z,16.60
2018-04-30T09:20:58.401Z,16.60
2018-04-30T09:23:26.771Z,16.30
2018-04-30T09:25:54.331Z,16.20
2018-04-30T09:28:21.943Z,16.10
2018-04-30T09:30:49.561Z,15.90
2018-04-30T09:33:18.035Z,16.10
2018-04-30T09:35:46.434Z,16.30
2018-04-30T09:38:14.219Z,16.20
2018-04-30T09:40:41.888Z,16.50
2018-04-30T09:43:09.494Z,16.50
2018-04-30T09:45:38.761Z,16.70
2018-04-30T09:48:06.382Z,16.70
2018-04-30T09:50:34.018Z,16.90
2018-04-30T09:53:03.339Z,16.80
2018-04-30T09:55:31.718Z,16.70
2018-04-30T09:58:00.093Z,16.90
2018-04-30T10:00:27.654Z,16.80
2018-04-30T10:02:55.256Z,17.00
2018-04-30T10:05:22.884Z,17.00
2018-04-30T10:07:50.553Z,17.10
2018-04-30T10:10:18.140Z,17.30
2018-04-30T10:12:45.742Z,17.60
2018-04-30T10:15:13.382Z,18.00
2018-04-30T10:17:41.070Z,18.10
2018-04-30T10:20:08.705Z,18.50
2018-04-30T10:22:36.343Z,18.70
2018-04-30T10:25:03.972Z,18.60
2018-04-30T10:27:31.629Z,18.60
2018-04-30T10:30:00.166Z,17.90
2018-04-30T10:32:27.754Z,17.80
2018-04-30T10:34:55.366Z,17.70
2018-04-30T10:37:22.992Z,17.60
2018-04-30T10:39:51.363Z,17.80
2018-04-30T10:42:19.749Z,18.20
2018-04-30T10:44:48.219Z,18.30
2018-04-30T10:47:15.857Z,18.40
2018-04-30T10:49:43.808Z,18.00
2018-04-30T10:52:11.512Z,17.70
2018-04-30T10:54:39.900Z,17.20
2018-04-30T10:57:07.531Z,17.20
2018-04-30T10:59:35.142Z,17.20
2018-04-30T11:02:02.781Z,17.10
2018-04-30T11:04:31.116Z,17.60
2018-04-30T11:06:58.731Z,17.70
2018-04-30T11:09:27.076Z,18.20
2018-04-30T11:11:54.698Z,18.20
2018-04-30T11:14:22.454Z,18.40
2018-04-30T11:16:50.017Z,18.60
2018-04-30T11:19:17.613Z,18.50
2018-04-30T11:21:45.213Z,18.30
2018-04-30T11:24:13.567Z,18.40
2018-04-30T11:26:41.171Z,18.40
2018-04-30T11:29:08.773Z,18.70
2018-04-30T11:31:36.359Z,18.90
2018-04-30T11:34:04.822Z,19.20
2018-04-30T11:36:32.401Z,19.20
2018-04-30T11:39:00.219Z,19.40
2018-04-30T11:41:27.843Z,19.60
2018-04-30T11:43:55.519Z,19.90
2018-04-30T11:46:23.191Z,19.90
2018-04-30T11:48:50.899Z,19.90
2018-04-30T11:51:18.492Z,19.90
2018-04-30T11:53:46.833Z,20.10
2018-04-30T11:56:14.498Z,19.90
2018-04-30T11:58:42.160Z,19.90
2018-04-30T12:01:09.742Z,20.30
2018-04-30T12:03:37.381Z,21.50
2018-04-30T12:06:05.115Z,22.70
2018-04-30T12:08:32.981Z,23.70
2018-04-30T12:11:00.641Z,24.50
2018-04-30T12:13:28.309Z,24.80
2018-04-30T12:15:55.981Z,25.10
2018-04-30T12:18:23.942Z,25.80
2018-04-30T12:20:51.571Z,25.70
2018-04-30T12:23:20.093Z,25.80
2018-04-30T12:25:47.733Z,26.40
2018-04-30T12:28:15.353Z,26.90
2018-04-30T12:30:43.733Z,26.20
2018-04-30T12:33:12.133Z,25.90
2018-04-30T12:35:40.718Z,25.90
2018-04-30T12:38:08.307Z,25.90
2018-04-30T12:40:35.931Z,26.10
2018-04-30T12:43:03.524Z,26.30
2018-04-30T12:45:31.161Z,27.10
2018-04-30T12:47:58.813Z,27.50
2018-04-30T12:50:26.540Z,28.00
2018-04-30T12:52:54.133Z,28.00
2018-04-30T12:55:21.943Z,27.10
2018-04-30T12:57:49.582Z,25.00
2018-04-30T13:00:17.201Z,24.30
2018-04-30T13:02:44.866Z,24.40
2018-04-30T13:05:13.245Z,25.30
2018-04-30T13:07:41.631Z,24.90
2018-04-30T13:10:09.987Z,24.80
2018-04-30T13:12:37.621Z,24.70
2018-04-30T13:15:05.249Z,25.50
2018-04-30T13:17:32.817Z,25.60
2018-04-30T13:20:00.462Z,24.80
2018-04-30T13:22:28.796Z,23.60
2018-04-30T13:24:56.412Z,23.50
2018-04-30T13:27:24.034Z,23.10
2018-04-30T13:29:51.634Z,23.30
2018-04-30T13:32:19.279Z,23.30
2018-04-30T13:34:50.177Z,22.70
2018-04-30T13:37:18.333Z,22.30
2018-04-30T13:39:46.180Z,22.70
2018-04-30T13:42:15.933Z,23.00
2018-04-30T13:44:43.559Z,23.00
2018-04-30T13:47:11.199Z,22.60
2018-04-30T13:49:38.823Z,21.80
2018-04-30T13:52:06.399Z,21.30
2018-04-30T13:54:34.772Z,20.70
2018-04-30T13:57:02.454Z,20.60
2018-04-30T13:59:30.347Z,20.50
2018-04-30T14:02:03.205Z,21.00
2018-04-30T14:04:30.754Z,21.00
2018-04-30T14:06:59.337Z,21.60
2018-04-30T14:09:26.877Z,21.90
2018-04-30T14:11:55.809Z,21.80
2018-04-30T14:14:24.893Z,21.60
2018-04-30T14:16:52.427Z,21.60
2018-04-30T14:19:19.943Z,21.40
2018-04-30T14:21:47.694Z,21.10
2018-04-30T14:24:15.244Z,20.80
2018-04-30T14:26:42.739Z,20.70
2018-04-30T14:29:10.300Z,21.40
2018-04-30T14:31:38.674Z,22.30
2018-04-30T14:34:06.164Z,22.50
2018-04-30T14:39:31.803Z,23.20
2018-04-30T14:41:59.305Z,23.20
2018-04-30T14:44:26.876Z,22.70
2018-04-30T14:46:54.411Z,22.10
2018-04-30T14:49:21.932Z,22.30
2018-04-30T14:51:49.474Z,23.00
2018-04-30T14:54:17.757Z,24.50
2018-04-30T14:56:50.920Z,24.80
2018-04-30T15:02:22.802Z,24.30
2018-04-30T15:04:51.559Z,25.00
2018-04-30T15:07:19.111Z,24.90
2018-04-30T15:09:46.624Z,25.10
2018-04-30T15:12:14.898Z,24.30
2018-04-30T15:14:48.947Z,24.20
2018-04-30T15:17:23.545Z,23.60
2018-04-30T15:19:51.039Z,23.80
2018-04-30T15:22:20.452Z,23.60
2018-04-30T15:24:47.971Z,23.60
2018-04-30T15:27:15.523Z,23.80
2018-04-30T15:30:08.560Z,24.30
2018-04-30T15:32:36.096Z,23.90
2018-04-30T15:35:03.615Z,23.30
2018-04-30T15:37:31.921Z,23.50
2018-04-30T15:39:59.828Z,23.50
2018-04-30T15:42:27.341Z,23.50
2018-04-30T15:44:54.882Z,23.30
2018-04-30T15:47:33.965Z,22.70
2018-04-30T15:50:01.570Z,22.70
2018-04-30T15:52:29.857Z,22.50
2018-04-30T15:54:58.165Z,22.50
2018-04-30T15:57:25.671Z,22.50
2018-04-30T15:59:53.212Z,22.40
2018-04-30T16:02:20.736Z,22.30
2018-04-30T16:04:48.274Z,22.20
2018-04-30T16:07:16.847Z,22.00
2018-04-30T16:09:45.107Z,21.70
2018-04-30T16:12:27.545Z,21.70
2018-04-30T16:14:55.059Z,21.60
2018-04-30T16:17:22.575Z,21.60
2018-04-30T16:19:50.091Z,21.40
2018-04-30T16:22:17.608Z,21.20
2018-04-30T16:24:46.433Z,21.00
2018-04-30T16:27:16.154Z,20.80
2018-04-30T16:29:43.595Z,20.60
2018-04-30T16:32:11.088Z,20.40
2018-04-30T16:34:39.443Z,20.00
2018-04-30T16:37:06.945Z,20.00
2018-04-30T16:39:35.875Z,19.80
2018-04-30T16:42:04.847Z,19.70
2018-04-30T16:44:32.379Z,19.70
2018-04-30T16:46:59.920Z,19.60
2018-04-30T16:49:28.232Z,19.60
2018-04-30T16:51:55.735Z,19.60
2018-04-30T16:54:23.238Z,19.70
2018-04-30T16:56:50.752Z,19.70
2018-04-30T16:59:18.262Z,19.60
2018-04-30T17:01:52.932Z,19.40
2018-04-30T17:04:30.407Z,19.20
2018-04-30T17:06:57.933Z,18.90
2018-04-30T17:09:26.383Z,18.70
2018-04-30T17:11:54.662Z,18.30
2018-04-30T17:14:22.937Z,18.00
2018-04-30T17:16:51.226Z,17.90
2018-04-30T17:19:18.768Z,17.80
2018-04-30T17:21:56.853Z,17.70
2018-04-30T17:24:24.418Z,17.40
2018-04-30T17:27:08.722Z,17.30
2018-04-30T17:29:36.318Z,17.20
2018-04-30T17:32:04.664Z,16.80
2018-04-30T17:34:32.337Z,16.80
2018-04-30T17:36:59.885Z,16.80
2018-04-30T17:39:27.408Z,16.70
2018-04-30T17:41:54.936Z,16.60
2018-04-30T17:44:22.754Z,16.50
2018-04-30T17:46:50.338Z,16.40
2018-04-30T17:49:17.785Z,16.40
2018-04-30T17:51:46.292Z,16.30
2018-04-30T17:54:13.912Z,16.30
2018-04-30T17:56:41.500Z,16.20
2018-04-30T17:59:09.076Z,16.20
2018-04-30T18:01:36.700Z,16.10
2018-04-30T18:04:05.628Z,16.10
2018-04-30T18:06:33.234Z,16.10
2018-04-30T18:09:01.616Z,16.10
2018-04-30T18:11:29.250Z,16.00
2018-04-30T18:13:56.908Z,16.00
2018-04-30T18:16:24.530Z,16.00
2018-04-30T18:18:52.123Z,16.00
2018-04-30T18:21:19.752Z,16.00
2018-04-30T18:23:47.337Z,16.00
2018-04-30T18:26:14.916Z,16.00
2018-04-30T18:28:42.519Z,15.90
2018-04-30T18:31:10.104Z,15.90
2018-04-30T18:33:38.169Z,15.90
2018-04-30T18:36:05.753Z,15.90
2018-04-30T18:38:33.518Z,15.80
2018-04-30T18:41:01.149Z,15.80
2018-04-30T18:43:28.798Z,15.70
2018-04-30T18:45:56.422Z,15.60
2018-04-30T18:48:42.968Z,15.60
2018-04-30T18:51:10.578Z,15.60
2018-04-30T18:53:38.199Z,15.50
2018-04-30T18:56:05.830Z,15.50
2018-04-30T18:58:33.448Z,15.50
2018-04-30T19:01:01.180Z,15.50
2018-04-30T19:03:28.765Z,15.50
2018-04-30T19:05:56.368Z,15.40
2018-04-30T19:08:24.747Z,15.40
2018-04-30T19:10:52.386Z,15.40
2018-04-30T19:13:20.716Z,15.40
2018-04-30T19:15:48.373Z,15.40
2018-04-30T19:18:16.037Z,15.40
2018-04-30T19:20:43.902Z,15.40
2018-04-30T19:23:11.574Z,15.40
2018-04-30T19:25:39.647Z,15.40
2018-04-30T19:28:07.363Z,15.40
2018-04-30T19:30:36.111Z,15.30
2018-04-30T19:33:03.831Z,15.30
2018-04-30T19:35:31.545Z,15.30
2018-04-30T19:37:59.173Z,15.30
2018-04-30T19:40:26.775Z,15.30
2018-04-30T19:42:54.454Z,15.30
2018-04-30T19:45:22.974Z,15.30
2018-04-30T19:47:50.559Z,15.20
2018-04-30T19:50:24.585Z,15.20
2018-04-30T19:53:05.720Z,15.20
2018-04-30T19:55:36.306Z,15.20
2018-04-30T19:58:04.126Z,15.20
2018-04-30T20:00:38.147Z,15.10
2018-04-30T20:03:05.939Z,15.10
2018-04-30T20:05:33.598Z,15.10
2018-04-30T20:08:01.208Z,15.10
2018-04-30T20:10:28.838Z,15.20
2018-04-30T20:13:03.017Z,15.10
2018-04-30T20:15:30.629Z,15.10
2018-04-30T20:18:02.189Z,15.00
2018-04-30T20:20:30.599Z,15.00
2018-04-30T20:22:58.913Z,15.00
2018-04-30T20:25:26.534Z,15.00
2018-04-30T20:27:54.109Z,15.00
2018-04-30T20:30:21.720Z,15.00
2018-04-30T20:32:50.123Z,15.00
2018-04-30T20:35:17.720Z,14.90
2018-04-30T20:37:45.331Z,14.90
2018-04-30T20:40:12.933Z,14.90
2018-04-30T20:42:40.520Z,14.90
2018-04-30T20:45:08.080Z,14.90
2018-04-30T20:47:35.686Z,14.90
2018-04-30T20:50:05.198Z,14.80
2018-04-30T20:52:32.806Z,14.80
2018-04-30T20:55:00.512Z,14.80
2018-04-30T20:57:28.138Z,14.80
2018-04-30T20:59:55.750Z,14.80
2018-04-30T21:02:23.381Z,14.80
2018-04-30T21:04:51.764Z,14.80
2018-04-30T21:07:19.368Z,14.80
2018-04-30T21:09:47.024Z,14.80
2018-04-30T21:12:14.654Z,14.80
2018-04-30T21:14:42.242Z,14.80
2018-04-30T21:17:28.743Z,14.80
2018-04-30T21:19:56.264Z,14.80
2018-04-30T21:22:37.448Z,14.80
2018-04-30T21:25:05.079Z,14.80
2018-04-30T21:27:32.672Z,14.80
2018-04-30T21:30:07.343Z,14.80
2018-04-30T21:32:34.911Z,14.80
2018-04-30T21:35:02.515Z,14.70
2018-04-30T21:37:30.129Z,14.70
2018-04-30T21:39:57.745Z,14.70
2018-04-30T21:42:25.382Z,14.70
2018-04-30T21:44:53.774Z,14.60
2018-04-30T21:47:22.129Z,14.70
2018-04-30T21:49:49.774Z,14.60
2018-04-30T21:52:17.342Z,14.60
2018-04-30T21:54:44.979Z,14.60
2018-04-30T21:57:26.646Z,14.60
2018-04-30T21:59:54.276Z,14.60
2018-04-30T22:02:22.618Z,14.60
2018-04-30T22:04:50.225Z,14.60
2018-04-30T22:07:18.649Z,14.50
2018-04-30T22:09:54.181Z,14.50
2018-04-30T22:12:21.777Z,14.50
2018-04-30T22:14:49.420Z,14.50
2018-04-30T22:17:17.013Z,14.50
2018-04-30T22:19:44.615Z,14.40
2018-04-30T22:22:12.245Z,14.40
2018-04-30T22:24:39.905Z,14.30
2018-04-30T22:27:08.278Z,14.30
2018-04-30T22:29:59.136Z,14.30
2018-04-30T22:32:26.742Z,14.20
2018-04-30T22:34:55.139Z,14.20
2018-04-30T22:37:23.532Z,14.10
2018-04-30T22:39:51.153Z,14.10
2018-04-30T22:42:18.750Z,14.10
2018-04-30T22:44:46.358Z,14.10
2018-04-30T22:47:13.969Z,14.10
2018-04-30T22:49:41.528Z,14.10
2018-04-30T22:52:09.193Z,14.10
2018-04-30T22:54:36.801Z,14.10
2018-04-30T22:57:04.406Z,14.00
2018-04-30T22:59:32.774Z,14.00
2018-04-30T23:02:00.536Z,14.00
2018-04-30T23:04:28.911Z,14.00
2018-04-30T23:06:56.514Z,14.00
2018-04-30T23:09:24.127Z,14.00
2018-04-30T23:11:51.752Z,14.00
2018-04-30T23:14:19.365Z,14.00
2018-04-30T23:16:46.939Z,14.00
2018-04-30T23:19:14.517Z,13.90
2018-04-30T23:21:42.171Z,13.90
2018-04-30T23:24:09.823Z,13.90
2018-04-30T23:26:37.369Z,13.90
2018-04-30T23:29:05.775Z,13.90
2018-04-30T23:31:33.341Z,13.90
2018-04-30T23:34:00.952Z,13.90
2018-04-30T23:36:28.676Z,13.90
2018-04-30T23:38:56.294Z,13.90
2018-04-30T23:41:24.717Z,13.80
2018-04-30T23:43:52.328Z,13.80
2018-04-30T23:46:20.712Z,13.80
2018-04-30T23:48:49.092Z,13.80
2018-04-30T23:51:17.450Z,13.70
2018-04-30T23:53:45.033Z,13.70
2018-04-30T23:56:13.411Z,13.60
2018-04-30T23:58:41.796Z,13.60
